Time;durP1;ratioP1;P1;durP2;ratioP2;P2;SDS_P1;SDS_P2;PMS_P1;PMS_P2;Temp;Humidity;BMP_temperature;BMP_pressure;BME280_temperature;BME280_humidity;BME280_pressure;Samples;Min_cycle;Max_cycle;Signal;HPM_P1;HPM_P2
2022/03/12 00:01:15;;;;;;;14.68;12.13;;;6.20;58.60;;;;;;4939297;28;90515;-34
2022/03/12 00:03:41;;;;;;;15.18;11.88;;;6.20;58.30;;;;;;4940191;28;88555;-33
2022/03/12 00:06:09;;;;;;;13.60;10.88;;;6.20;58.60;;;;;;4939802;28;91694;-33
2022/03/12 00:11:08;;;;;;;17.23;10.68;;;6.20;58.30;;;;;;4970927;23;89473;-31
2022/03/12 00:13:34;;;;;;;16.53;12.03;;;6.30;58.40;;;;;;4939412;28;89088;-34
2022/03/12 00:16:00;;;;;;;14.35;10.88;;;6.30;58.30;;;;;;4939709;28;90535;-31
2022/03/12 00:18:30;;;;;;;13.55;11.40;;;6.30;58.10;;;;;;4940020;28;89658;-30
2022/03/12 00:20:56;;;;;;;12.40;11.10;;;6.30;58.20;;;;;;4939874;28;89407;-35
2022/03/12 00:23:22;;;;;;;12.25;10.43;;;6.30;58.10;;;;;;4938777;28;89256;-33
2022/03/12 00:25:48;;;;;;;16.65;10.70;;;6.30;58.10;;;;;;4939559;28;89939;-31
2022/03/12 00:28:16;;;;;;;13.63;10.93;;;6.30;58.20;;;;;;4939491;28;89901;-31
2022/03/12 00:30:45;;;;;;;15.73;12.82;;;6.30;58.20;;;;;;4939835;28;89679;-34
2022/03/12 00:33:11;;;;;;;13.07;10.38;;;6.20;58.20;;;;;;4939266;28;88615;-34
2022/03/12 00:35:37;;;;;;;18.42;11.93;;;6.20;58.20;;;;;;4939063;28;90461;-32
2022/03/12 00:38:03;;;;;;;15.65;10.93;;;6.20;58.50;;;;;;4939140;28;89723;-32
2022/03/12 00:40:29;;;;;;;14.00;11.20;;;6.20;58.40;;;;;;4939203;28;88987;-33
2022/03/12 00:42:55;;;;;;;15.13;11.73;;;6.20;58.40;;;;;;4942050;28;87651;-34
2022/03/12 00:45:20;;;;;;;12.63;11.15;;;6.30;58.30;;;;;;4942520;28;90237;-33
2022/03/12 00:47:48;;;;;;;11.77;10.57;;;6.30;58.50;;;;;;4943046;28;90964;-33
2022/03/12 00:50:13;;;;;;;13.70;10.73;;;6.20;58.20;;;;;;4942996;28;90448;-31
2022/03/12 00:52:39;;;;;;;19.52;12.10;;;6.20;58.50;;;;;;4942631;28;90066;-30
2022/03/12 00:55:05;;;;;;;17.17;11.32;;;6.20;58.70;;;;;;4942878;28;90612;-32
2022/03/12 00:57:30;;;;;;;17.67;10.98;;;6.20;58.70;;;;;;4941606;28;89927;-35
2022/03/12 00:59:56;;;;;;;14.35;10.88;;;6.20;58.00;;;;;;4942958;28;88617;-33
2022/03/12 01:02:22;;;;;;;14.05;10.57;;;6.30;57.80;;;;;;4942408;28;88912;-33
2022/03/12 01:04:47;;;;;;;12.40;10.70;;;6.30;57.80;;;;;;4942598;28;90465;-33
2022/03/12 01:07:13;;;;;;;16.02;12.02;;;6.30;57.90;;;;;;4942823;28;89625;-30
2022/03/12 01:09:39;;;;;;;12.63;9.00;;;6.30;58.00;;;;;;4941587;28;89739;-31
2022/03/12 01:12:08;;;;;;;15.60;10.77;;;6.30;58.10;;;;;;4942780;28;89866;-33
2022/03/12 01:14:38;;;;;;;16.63;11.57;;;6.40;57.50;;;;;;4942511;28;89911;-32
2022/03/12 01:17:05;;;;;;;15.48;11.52;;;6.40;57.30;;;;;;4942287;28;89800;-33
2022/03/12 01:19:34;;;;;;;13.77;10.77;;;6.40;57.60;;;;;;4942493;28;89605;-30
2022/03/12 01:22:04;;;;;;;15.38;12.50;;;6.40;57.50;;;;;;4942125;28;88955;-31
2022/03/12 01:24:30;;;;;;;12.27;10.80;;;6.40;57.60;;;;;;4941945;28;89566;-31
2022/03/12 01:26:57;;;;;;;12.32;10.50;;;6.40;57.80;;;;;;4941213;28;90418;-30
2022/03/12 01:29:23;;;;;;;14.57;12.38;;;6.40;57.80;;;;;;4942476;28;88971;-34
2022/03/12 01:31:49;;;;;;;12.73;9.95;;;6.30;57.90;;;;;;4942070;28;87843;-34
2022/03/12 01:34:14;;;;;;;17.17;11.15;;;6.30;58.50;;;;;;4942324;28;89928;-33
2022/03/12 01:36:40;;;;;;;15.15;12.85;;;6.30;58.20;;;;;;4941470;28;92196;-32
2022/03/12 01:39:05;;;;;;;18.50;10.88;;;6.30;58.30;;;;;;4941757;28;90376;-32
2022/03/12 01:41:33;;;;;;;14.63;11.38;;;6.20;58.30;;;;;;4942583;28;89958;-34
2022/03/12 01:44:00;;;;;;;15.80;11.77;;;6.20;58.20;;;;;;4942417;28;90059;-32
2022/03/12 01:46:34;;;;;;;13.68;11.40;;;6.30;58.30;;;;;;4941343;28;89925;-33
2022/03/12 01:49:06;;;;;;;15.60;11.15;;;6.20;58.70;;;;;;4941732;28;89307;-33
2022/03/12 01:51:33;;;;;;;22.00;12.55;;;6.20;58.50;;;;;;4941277;28;88746;-33
2022/03/12 01:54:01;;;;;;;15.25;12.30;;;6.20;58.60;;;;;;4941864;28;91290;-32
2022/03/12 01:56:28;;;;;;;15.27;12.05;;;6.20;58.60;;;;;;4941458;28;89274;-32
2022/03/12 01:58:54;;;;;;;13.77;12.13;;;6.10;59.10;;;;;;4941199;28;89802;-33
2022/03/12 02:01:21;;;;;;;14.32;11.80;;;6.10;59.30;;;;;;4940645;28;90088;-35
2022/03/12 02:03:47;;;;;;;16.77;12.05;;;6.00;59.60;;;;;;4941809;28;90435;-32
2022/03/12 02:06:19;;;;;;;14.40;11.43;;;6.10;59.40;;;;;;4940998;28;90019;-34
2022/03/12 02:08:48;;;;;;;18.00;11.10;;;6.00;59.80;;;;;;4941280;28;89389;-33
2022/03/12 02:11:13;;;;;;;;;;;6.00;60.10;;;;;;4940945;28;88777;-35
2022/03/12 02:13:40;;;;;;;15.05;12.55;;;6.00;59.70;;;;;;4925696;28;90113;-35
2022/03/12 02:16:07;;;;;;;14.00;11.77;;;6.00;59.90;;;;;;4941987;28;89638;-33
2022/03/12 02:18:34;;;;;;;15.85;10.38;;;5.90;59.70;;;;;;4941682;28;91589;-31
2022/03/12 02:21:00;;;;;;;14.80;12.52;;;6.10;59.50;;;;;;4941125;28;88391;-35
2022/03/12 02:23:26;;;;;;;15.13;11.73;;;5.90;59.80;;;;;;4940994;28;90655;-33
2022/03/12 02:25:51;;;;;;;14.23;11.73;;;5.90;60.10;;;;;;4940491;28;90869;-32
2022/03/12 02:28:19;;;;;;;19.42;12.73;;;5.90;60.00;;;;;;4940943;28;89949;-33
2022/03/12 02:30:51;;;;;;;19.80;13.90;;;5.80;60.30;;;;;;4924162;28;89149;-32
2022/03/12 02:33:24;;;;;;;18.40;12.75;;;5.80;60.70;;;;;;4940540;28;90071;-35
2022/03/12 02:35:51;;;;;;;21.50;13.18;;;5.80;60.60;;;;;;4940466;28;90379;-34
2022/03/12 02:38:19;;;;;;;14.55;11.55;;;5.80;61.00;;;;;;4940062;28;89938;-35
2022/03/12 02:40:47;;;;;;;13.95;11.60;;;5.80;60.30;;;;;;4941416;28;87708;-32
2022/03/12 02:43:13;;;;;;;15.25;10.98;;;5.90;60.30;;;;;;4941415;28;90182;-33
2022/03/12 02:45:39;;;;;;;15.18;11.02;;;5.90;60.30;;;;;;4940353;28;89665;-31
2022/03/12 02:48:10;;;;;;;14.98;12.55;;;5.90;60.70;;;;;;4940925;28;90187;-37
2022/03/12 02:50:36;;;;;;;14.95;11.38;;;5.80;60.70;;;;;;4940668;28;88759;-30
2022/03/12 02:53:02;;;;;;;17.98;12.80;;;5.90;60.40;;;;;;4941107;28;88953;-34
2022/03/12 02:55:29;;;;;;;20.17;13.35;;;5.90;60.60;;;;;;4939867;28;89768;-34
2022/03/12 02:57:54;;;;;;;18.08;11.23;;;5.80;60.90;;;;;;4940741;28;89621;-35
2022/03/12 03:00:20;;;;;;;15.60;11.90;;;5.80;61.00;;;;;;4940526;28;89194;-34
2022/03/12 03:02:52;;;;;;;17.00;13.07;;;5.70;62.30;;;;;;4940593;28;90385;-32
2022/03/12 03:05:30;;;;;;;16.30;12.13;;;5.70;61.50;;;;;;4939171;28;90002;-33
2022/03/12 03:07:57;;;;;;;16.33;10.97;;;5.70;61.80;;;;;;4940692;28;89824;-31
2022/03/12 03:10:34;;;;;;;13.65;10.93;;;5.70;61.60;;;;;;4939862;28;88379;-32
2022/03/12 03:13:16;;;;;;;13.35;10.63;;;5.70;61.80;;;;;;4940958;28;90139;-35
2022/03/12 03:15:50;;;;;;;19.40;12.82;;;5.80;62.20;;;;;;4939869;28;89549;-34
2022/03/12 03:18:20;;;;;;;18.85;11.45;;;5.80;61.00;;;;;;4940420;28;90446;-33
2022/03/12 03:20:46;;;;;;;12.98;11.43;;;5.70;61.30;;;;;;4923398;28;89411;-30
2022/03/12 03:23:12;;;;;;;16.35;11.35;;;5.70;61.30;;;;;;4939767;28;89084;-32
2022/03/12 03:25:39;;;;;;;17.05;12.02;;;5.70;61.50;;;;;;4940846;28;89323;-32
2022/03/12 03:28:05;;;;;;;15.50;11.88;;;5.70;61.40;;;;;;4940113;28;89016;-33
2022/03/12 03:30:37;;;;;;;17.02;12.02;;;5.70;61.40;;;;;;4940079;28;89414;-31
2022/03/12 03:33:05;;;;;;;13.43;11.35;;;5.60;61.40;;;;;;4939582;28;89066;-34
2022/03/12 03:35:31;;;;;;;17.27;11.77;;;5.70;61.30;;;;;;4939684;28;91559;-32
2022/03/12 03:37:57;;;;;;;18.05;12.55;;;5.70;61.30;;;;;;4940509;28;89614;-32
2022/03/12 03:40:24;;;;;;;23.05;13.05;;;5.70;62.00;;;;;;4940093;28;89782;-32
2022/03/12 03:42:50;;;;;;;18.95;12.25;;;5.60;61.80;;;;;;4940157;28;91259;-32
2022/03/12 03:45:24;;;;;;;17.30;11.48;;;5.70;61.00;;;;;;4940069;28;89562;-37
2022/03/12 03:47:50;;;;;;;20.02;12.25;;;5.70;61.30;;;;;;4939294;28;89323;-32
2022/03/12 03:50:18;;;;;;;14.85;10.50;;;5.60;61.60;;;;;;4940072;28;88876;-33
2022/03/12 03:52:44;;;;;;;18.83;11.75;;;5.60;61.50;;;;;;4940482;28;90407;-34
2022/03/12 03:55:10;;;;;;;16.92;11.38;;;5.70;61.20;;;;;;4939724;28;89549;-34
2022/03/12 03:57:36;;;;;;;12.88;10.75;;;5.70;61.40;;;;;;4939732;28;89064;-32
2022/03/12 04:00:04;;;;;;;11.68;10.48;;;5.70;61.50;;;;;;4940367;28;88075;-32
2022/03/12 04:02:29;;;;;;;15.03;11.47;;;5.70;61.10;;;;;;4939576;28;90172;-32
2022/03/12 04:04:55;;;;;;;12.75;11.27;;;5.60;62.20;;;;;;4939137;28;90892;-36
2022/03/12 04:07:21;;;;;;;19.90;11.38;;;5.60;61.30;;;;;;4939289;28;90553;-33
2022/03/12 04:09:46;;;;;;;14.57;11.85;;;5.60;61.10;;;;;;4939128;28;88213;-32
2022/03/12 04:12:12;;;;;;;11.73;10.20;;;5.60;61.10;;;;;;4940259;28;90577;-34
2022/03/12 04:14:37;;;;;;;14.90;10.70;;;5.50;61.20;;;;;;4939336;28;89512;-31
2022/03/12 04:17:05;;;;;;;13.45;12.05;;;5.60;61.20;;;;;;4939291;28;90118;-32
2022/03/12 04:19:30;;;;;;;18.60;10.18;;;5.50;61.10;;;;;;4939599;28;88790;-32
2022/03/12 04:21:57;;;;;;;16.10;12.45;;;5.40;61.60;;;;;;4938927;28;90380;-31
2022/03/12 04:24:24;;;;;;;13.52;10.00;;;5.50;61.40;;;;;;4940435;28;89958;-34
2022/03/12 04:26:50;;;;;;;15.18;11.35;;;5.40;61.90;;;;;;4939886;28;90707;-31
2022/03/12 04:29:18;;;;;;;12.40;10.13;;;5.40;61.20;;;;;;4938613;28;90296;-34
2022/03/12 04:31:46;;;;;;;16.23;11.82;;;5.40;61.40;;;;;;4939032;28;90509;-35
2022/03/12 04:34:13;;;;;;;;;;;5.40;61.20;;;;;;4940125;28;90395;-35
2022/03/12 04:36:41;;;;;;;11.43;10.18;;;5.40;61.30;;;;;;4941249;28;88859;-32
2022/03/12 04:39:11;;;;;;;;;;;5.30;61.50;;;;;;4940126;28;89152;-34
2022/03/12 04:41:39;;;;;;;15.48;10.20;;;5.30;61.20;;;;;;4940885;28;90112;-33
2022/03/12 04:44:07;;;;;;;18.50;11.27;;;5.30;61.30;;;;;;4939267;28;89013;-32
2022/03/12 04:46:37;;;;;;;16.17;11.45;;;5.20;61.50;;;;;;4939353;28;89349;-32
2022/03/12 04:49:04;;;;;;;17.45;11.65;;;5.20;61.70;;;;;;4939711;28;89304;-36
2022/03/12 04:51:30;;;;;;;15.27;11.93;;;5.20;61.70;;;;;;4939588;28;90273;-34
2022/03/12 04:53:58;;;;;;;12.68;10.43;;;5.10;61.70;;;;;;4938500;28;89940;-33
2022/03/12 04:56:25;;;;;;;16.83;10.85;;;5.10;62.10;;;;;;4938828;28;89303;-31
2022/03/12 04:58:55;;;;;;;13.52;9.90;;;5.10;62.10;;;;;;4939346;28;89464;-34
2022/03/12 05:01:21;;;;;;;13.52;9.75;;;5.20;61.60;;;;;;4939200;28;90253;-35
2022/03/12 05:03:48;;;;;;;15.07;11.68;;;5.30;60.90;;;;;;4939579;28;89833;-31
2022/03/12 05:06:15;;;;;;;17.92;11.57;;;5.20;61.40;;;;;;4939018;28;89844;-35
2022/03/12 05:08:41;;;;;;;12.70;10.93;;;5.00;61.80;;;;;;4938855;28;87741;-32
2022/03/12 05:11:08;;;;;;;13.15;10.80;;;5.00;62.20;;;;;;4921303;28;89321;-33
2022/03/12 05:13:34;;;;;;;13.80;10.85;;;4.90;62.70;;;;;;4939013;28;90120;-34
2022/03/12 05:16:08;;;;;;;12.65;11.45;;;4.80;62.50;;;;;;4938496;28;89914;-32
2022/03/12 05:18:36;;;;;;;13.35;11.07;;;4.80;62.90;;;;;;4938519;28;89917;-32
2022/03/12 05:21:02;;;;;;;;;;;4.80;63.00;;;;;;4939149;28;90478;-32
2022/03/12 05:23:28;;;;;;;17.23;11.75;;;4.70;63.50;;;;;;4940001;28;90027;-34
2022/03/12 05:25:54;;;;;;;15.90;9.55;;;4.60;63.30;;;;;;4938943;28;88745;-30
2022/03/12 05:28:25;;;;;;;17.73;11.48;;;4.60;63.70;;;;;;4940267;28;88277;-30
2022/03/12 05:30:57;;;;;;;13.20;10.90;;;4.50;63.60;;;;;;4941959;28;89895;-31
2022/03/12 05:33:23;;;;;;;14.52;11.93;;;4.50;63.70;;;;;;4942598;28;89115;-31
2022/03/12 05:35:54;;;;;;;13.82;10.75;;;4.40;64.10;;;;;;4942075;28;89073;-32
2022/03/12 05:38:20;;;;;;;13.45;11.90;;;4.40;64.60;;;;;;4941707;28;89531;-31
2022/03/12 05:40:48;;;;;;;16.23;12.32;;;4.30;64.60;;;;;;4941847;28;90360;-32
2022/03/12 05:43:17;;;;;;;13.50;11.18;;;4.30;64.80;;;;;;4941904;28;91098;-35
2022/03/12 05:45:51;;;;;;;16.02;11.20;;;4.20;65.10;;;;;;4942324;28;90111;-32
2022/03/12 05:48:17;;;;;;;11.48;10.35;;;4.20;65.30;;;;;;4941265;28;88082;-35
2022/03/12 05:50:45;;;;;;;14.00;11.10;;;4.20;65.40;;;;;;4941867;28;90315;-35
2022/03/12 05:53:11;;;;;;;14.13;10.23;;;4.20;65.00;;;;;;4942188;28;89882;-31
2022/03/12 05:55:39;;;;;;;12.77;11.02;;;4.20;65.40;;;;;;4941690;28;89485;-31
2022/03/12 05:58:06;;;;;;;17.88;11.00;;;4.20;65.70;;;;;;4940827;28;88638;-33
2022/03/12 06:00:32;;;;;;;17.35;11.85;;;4.10;65.60;;;;;;4941646;28;90103;-31
2022/03/12 06:02:59;;;;;;;12.35;10.98;;;4.10;66.20;;;;;;4941585;28;89726;-32
2022/03/12 06:05:26;;;;;;;14.73;11.25;;;4.10;65.70;;;;;;4941190;28;89500;-31
2022/03/12 06:07:53;;;;;;;12.52;10.45;;;4.10;66.40;;;;;;4941457;28;89781;-33
2022/03/12 06:10:24;;;;;;;11.40;9.55;;;4.10;66.10;;;;;;4940796;28;91555;-33
2022/03/12 06:12:53;;;;;;;16.67;11.20;;;4.00;66.40;;;;;;4941916;28;89985;-33
2022/03/12 06:15:22;;;;;;;21.77;11.13;;;4.10;66.40;;;;;;4941385;28;89862;-31
2022/03/12 06:17:49;;;;;;;12.75;10.73;;;4.10;66.50;;;;;;4941682;28;88968;-33
2022/03/12 06:20:17;;;;;;;14.27;12.07;;;4.10;66.60;;;;;;4941286;28;89295;-33
2022/03/12 06:22:43;;;;;;;14.40;12.13;;;4.10;66.60;;;;;;4922971;28;90229;-31
2022/03/12 06:25:14;;;;;;;13.88;10.38;;;4.10;67.00;;;;;;4941374;28;89327;-35
2022/03/12 06:27:42;;;;;;;20.55;11.43;;;4.10;67.10;;;;;;4941255;28;88192;-32
2022/03/12 06:30:10;;;;;;;15.70;10.18;;;4.20;67.50;;;;;;4941601;28;88933;-33
2022/03/12 06:32:38;;;;;;;12.82;10.00;;;4.20;67.20;;;;;;4940214;28;90346;-34
2022/03/12 06:35:04;;;;;;;12.88;10.32;;;4.30;67.00;;;;;;4940550;28;90422;-35
2022/03/12 06:37:30;;;;;;;10.88;9.77;;;4.30;66.90;;;;;;4922707;28;89466;-35
2022/03/12 06:39:56;;;;;;;11.45;9.43;;;4.40;66.70;;;;;;4940664;28;90310;-31
2022/03/12 06:42:24;;;;;;;12.30;9.77;;;4.50;66.60;;;;;;4941463;28;89096;-30
2022/03/12 06:44:53;;;;;;;13.43;11.13;;;4.60;66.20;;;;;;4940853;28;89444;-35
2022/03/12 06:47:20;;;;;;;15.00;12.05;;;4.60;66.40;;;;;;4940602;28;88567;-31
2022/03/12 06:49:46;;;;;;;12.50;10.32;;;4.60;66.20;;;;;;4941168;28;90246;-35
2022/03/12 06:52:11;;;;;;;12.55;10.27;;;4.60;66.50;;;;;;4940463;28;89713;-33
2022/03/12 06:54:38;;;;;;;16.52;12.20;;;4.60;66.20;;;;;;4940757;28;89859;-31
2022/03/12 06:57:04;;;;;;;12.93;11.45;;;4.60;66.50;;;;;;4939800;28;89002;-33
2022/03/12 06:59:31;;;;;;;15.80;10.63;;;4.70;66.50;;;;;;4939721;28;90061;-31
2022/03/12 07:01:57;;;;;;;13.82;10.40;;;4.70;66.40;;;;;;4940951;28;90138;-33
2022/03/12 07:04:22;;;;;;;12.65;10.70;;;4.80;66.40;;;;;;4940287;28;89352;-32
2022/03/12 07:06:49;;;;;;;13.65;10.13;;;4.80;66.30;;;;;;4940711;28;89080;-35
2022/03/12 07:09:18;;;;;;;15.10;9.45;;;4.90;66.40;;;;;;4940588;28;88924;-33
2022/03/12 07:11:43;;;;;;;12.25;10.75;;;5.00;66.70;;;;;;4941138;28;88778;-31
2022/03/12 07:14:10;;;;;;;13.77;10.75;;;5.00;66.40;;;;;;4939942;28;89543;-31
2022/03/12 07:16:36;;;;;;;11.48;10.07;;;5.00;66.10;;;;;;4940680;28;89942;-31
2022/03/12 07:19:02;;;;;;;12.93;10.65;;;5.10;66.10;;;;;;4940437;28;90291;-32
2022/03/12 07:21:28;;;;;;;13.73;12.20;;;5.20;66.10;;;;;;4939145;28;90423;-33
2022/03/12 07:23:55;;;;;;;18.58;11.25;;;5.30;65.60;;;;;;4940249;28;89095;-31
2022/03/12 07:26:21;;;;;;;15.73;11.40;;;5.30;65.50;;;;;;4940379;28;89064;-32
2022/03/12 07:28:48;;;;;;;14.68;10.27;;;5.40;66.00;;;;;;4939967;28;90459;-33
2022/03/12 07:31:15;;;;;;;12.63;11.35;;;5.50;66.00;;;;;;4940603;28;89809;-34
2022/03/12 07:33:41;;;;;;;14.05;9.88;;;5.60;65.90;;;;;;4940321;28;90018;-35
2022/03/12 07:36:06;;;;;;;13.60;10.70;;;5.70;66.30;;;;;;4940260;28;88805;-32
2022/03/12 07:38:32;;;;;;;14.70;11.27;;;5.80;66.10;;;;;;4939628;28;90172;-34
2022/03/12 07:40:58;;;;;;;15.93;11.25;;;5.90;65.30;;;;;;4939773;28;89426;-34
2022/03/12 07:43:24;;;;;;;13.35;11.32;;;5.90;64.50;;;;;;4939734;28;89515;-33
2022/03/12 07:45:50;;;;;;;13.95;11.05;;;5.90;65.10;;;;;;4939773;28;89890;-32
2022/03/12 07:48:16;;;;;;;13.82;12.27;;;5.90;65.30;;;;;;4939125;28;90202;-33
2022/03/12 07:50:44;;;;;;;15.32;11.50;;;5.90;64.50;;;;;;4939662;28;89538;-35
2022/03/12 07:53:10;;;;;;;13.32;11.57;;;5.90;64.80;;;;;;4939910;28;89560;-31
2022/03/12 07:55:35;;;;;;;16.55;10.80;;;6.00;64.90;;;;;;4939940;28;87827;-32
2022/03/12 07:58:01;;;;;;;12.77;11.07;;;6.10;65.60;;;;;;4939969;28;90422;-33
2022/03/12 08:00:28;;;;;;;13.05;9.98;;;6.40;65.70;;;;;;4938434;28;90863;-33
2022/03/12 08:02:55;;;;;;;15.20;11.73;;;6.60;65.20;;;;;;4921307;28;91180;-35
2022/03/12 08:05:23;;;;;;;14.65;11.85;;;6.90;64.30;;;;;;4940018;28;89584;-31
2022/03/12 08:07:50;;;;;;;16.35;12.77;;;7.20;62.80;;;;;;4940334;28;90119;-30
2022/03/12 08:10:16;;;;;;;15.32;11.15;;;7.30;62.70;;;;;;4937950;28;90659;-37
2022/03/12 08:12:43;;;;;;;12.23;10.32;;;7.50;62.80;;;;;;4939758;28;89820;-31
2022/03/12 08:15:10;;;;;;;12.77;10.60;;;7.60;62.50;;;;;;4939945;28;87753;-32
2022/03/12 08:17:36;;;;;;;17.58;11.98;;;7.80;61.70;;;;;;4939151;28;89497;-32
2022/03/12 08:20:05;;;;;;;14.45;12.77;;;8.00;61.70;;;;;;4940428;28;89336;-35
2022/03/12 08:22:30;;;;;;;13.85;11.55;;;8.10;62.10;;;;;;4939379;28;89533;-33
2022/03/12 08:24:56;;;;;;;14.15;11.40;;;8.30;61.40;;;;;;4939599;28;88685;-34
2022/03/12 08:27:21;;;;;;;18.08;12.30;;;8.50;61.10;;;;;;4939525;28;90259;-35
2022/03/12 08:29:47;;;;;;;15.25;12.77;;;8.50;59.80;;;;;;4939410;28;90348;-33
2022/03/12 08:32:12;;;;;;;16.75;11.60;;;8.60;59.60;;;;;;4939208;28;89595;-32
2022/03/12 08:34:38;;;;;;;15.60;11.85;;;8.70;59.80;;;;;;4935651;28;89773;-32
2022/03/12 08:37:05;;;;;;;14.25;12.23;;;8.80;60.60;;;;;;4936489;28;89665;-34
2022/03/12 08:39:31;;;;;;;17.25;13.05;;;9.00;59.10;;;;;;4937087;28;89630;-35
2022/03/12 08:41:57;;;;;;;18.08;12.02;;;9.00;58.70;;;;;;4937891;28;89337;-31
2022/03/12 08:44:22;;;;;;;17.13;12.23;;;9.10;58.30;;;;;;4936781;28;87929;-33
2022/03/12 08:46:48;;;;;;;17.77;12.55;;;9.20;58.50;;;;;;4937273;28;90364;-33
2022/03/12 08:49:16;;;;;;;16.48;11.20;;;9.40;57.70;;;;;;4937554;28;89430;-33
2022/03/12 08:51:42;;;;;;;15.53;12.73;;;9.60;57.00;;;;;;4935901;28;89704;-34
2022/03/12 08:54:08;;;;;;;15.68;12.35;;;9.70;56.60;;;;;;4936541;28;89854;-33
2022/03/12 08:56:35;;;;;;;22.15;10.93;;;9.80;56.50;;;;;;4936448;28;90961;-32
2022/03/12 08:59:01;;;;;;;20.10;13.50;;;9.90;56.70;;;;;;4935471;28;90263;-34
2022/03/12 09:01:26;;;;;;;14.45;11.10;;;10.10;56.50;;;;;;4936402;28;90784;-34
2022/03/12 09:03:52;;;;;;;16.00;11.57;;;10.10;56.10;;;;;;4938384;28;88218;-35
2022/03/12 09:06:18;;;;;;;13.25;11.73;;;10.20;56.40;;;;;;4939823;28;89929;-34
2022/03/12 09:08:45;;;;;;;16.63;13.55;;;10.30;56.70;;;;;;4940178;28;89807;-32
2022/03/12 09:11:13;;;;;;;13.82;11.20;;;10.30;57.30;;;;;;4939048;28;89536;-34
2022/03/12 09:13:39;;;;;;;15.63;11.25;;;10.50;56.90;;;;;;4938926;28;89473;-35
2022/03/12 09:16:05;;;;;;;16.58;12.82;;;10.60;56.40;;;;;;4922297;28;90468;-34
2022/03/12 09:18:31;;;;;;;16.02;12.50;;;10.70;56.90;;;;;;4939298;28;89966;-34
2022/03/12 09:20:56;;;;;;;17.33;13.50;;;10.70;57.10;;;;;;4940340;28;89048;-34
2022/03/12 09:23:22;;;;;;;15.50;12.25;;;10.90;57.10;;;;;;4938525;28;90268;-34
2022/03/12 09:25:50;;;;;;;12.05;10.85;;;11.00;56.90;;;;;;4939278;28;90292;-33
2022/03/12 09:28:16;;;;;;;13.05;10.48;;;11.10;57.70;;;;;;4939755;28;89740;-36
2022/03/12 09:30:43;;;;;;;16.40;12.25;;;11.20;57.60;;;;;;4939710;28;91630;-33
2022/03/12 09:33:09;;;;;;;16.83;11.15;;;11.40;57.50;;;;;;4938984;28;88627;-34
2022/03/12 09:35:35;;;;;;;16.60;12.48;;;11.50;57.80;;;;;;4939165;28;90175;-31
2022/03/12 09:38:02;;;;;;;15.02;12.48;;;11.70;58.60;;;;;;4939086;28;90524;-32
2022/03/12 09:40:29;;;;;;;18.23;11.75;;;11.90;58.20;;;;;;4939272;28;88546;-35
2022/03/12 09:42:55;;;;;;;18.65;13.07;;;11.90;58.50;;;;;;4939676;28;88512;-32
2022/03/12 09:45:22;;;;;;;16.30;12.80;;;12.10;58.40;;;;;;4938973;28;91828;-31
2022/03/12 09:47:48;;;;;;;13.70;12.18;;;12.10;58.70;;;;;;4938202;28;90918;-34
2022/03/12 09:50:14;;;;;;;12.38;11.27;;;12.20;59.20;;;;;;4939840;28;90695;-31
2022/03/12 09:52:40;;;;;;;14.82;11.45;;;12.30;59.00;;;;;;4938790;28;88872;-35
2022/03/12 09:55:07;;;;;;;19.40;12.80;;;12.40;59.90;;;;;;4939629;28;90289;-35
2022/03/12 09:57:34;;;;;;;17.42;12.32;;;12.50;59.80;;;;;;4939032;28;91040;-33
2022/03/12 10:00:04;;;;;;;17.77;9.65;;;12.60;60.70;;;;;;4921135;28;92602;-33
2022/03/12 10:02:30;;;;;;;15.13;11.98;;;12.90;60.90;;;;;;4939840;28;88284;-33
2022/03/12 10:04:55;;;;;;;20.40;12.50;;;13.10;60.20;;;;;;4939331;28;90418;-32
2022/03/12 10:07:22;;;;;;;23.33;12.25;;;13.20;60.40;;;;;;4939457;28;89957;-31
2022/03/12 10:09:47;;;;;;;16.15;12.25;;;13.20;61.10;;;;;;4937946;28;89570;-36
2022/03/12 10:12:14;;;;;;;16.33;11.60;;;13.30;60.30;;;;;;4939016;28;88062;-33
2022/03/12 10:14:39;;;;;;;15.63;13.23;;;13.30;60.50;;;;;;4953931;28;90645;-33
2022/03/12 10:17:05;;;;;;;13.88;11.85;;;13.40;60.60;;;;;;4938655;28;89698;-36
2022/03/12 10:19:31;;;;;;;21.63;11.73;;;13.40;60.20;;;;;;4938987;28;89383;-32
2022/03/12 10:21:57;;;;;;;13.63;11.50;;;13.40;61.00;;;;;;4938155;28;88895;-32
2022/03/12 10:24:24;;;;;;;14.00;12.02;;;13.40;61.10;;;;;;4938294;28;89939;-34
2022/03/12 10:26:50;;;;;;;14.07;11.40;;;13.50;61.10;;;;;;4939313;28;89223;-32
2022/03/12 10:29:16;;;;;;;13.90;11.90;;;13.70;61.80;;;;;;4938527;28;89575;-35
2022/03/12 10:31:42;;;;;;;15.07;11.25;;;14.00;61.20;;;;;;4939090;28;88129;-35
2022/03/12 10:34:24;;;;;;;18.27;11.10;;;14.20;61.70;;;;;;4939058;28;90410;-34
2022/03/12 10:36:55;;;;;;;15.02;11.68;;;14.40;60.70;;;;;;4937932;28;90849;-31
2022/03/12 10:39:36;;;;;;;15.02;10.82;;;14.50;60.80;;;;;;4938477;28;90600;-35
2022/03/12 10:42:08;;;;;;;13.02;10.88;;;14.70;60.70;;;;;;4938666;28;88992;-33
2022/03/12 10:44:39;;;;;;;13.73;11.70;;;14.70;61.00;;;;;;4937965;28;91892;-33
2022/03/12 10:47:25;;;;;;;14.75;10.95;;;14.70;61.10;;;;;;4938734;28;90841;-31
2022/03/12 10:49:58;;;;;;;18.17;12.05;;;14.70;61.50;;;;;;4937936;28;91582;-34
2022/03/12 10:52:29;;;;;;;13.75;10.90;;;14.70;61.70;;;;;;4938721;28;89558;-34
2022/03/12 10:54:55;;;;;;;19.20;12.13;;;14.70;61.60;;;;;;4938888;28;88844;-34
2022/03/12 10:57:21;;;;;;;12.90;10.98;;;14.60;62.60;;;;;;4937962;28;90793;-33
2022/03/12 10:59:52;;;;;;;12.98;11.40;;;14.60;63.40;;;;;;4937870;28;89873;-35
2022/03/12 11:02:18;;;;;;;11.98;10.60;;;14.70;64.50;;;;;;4937616;28;88935;-34
2022/03/12 11:04:44;;;;;;;16.33;10.55;;;14.80;64.50;;;;;;4938593;28;90255;-35
2022/03/12 11:07:27;;;;;;;11.95;10.80;;;14.70;64.30;;;;;;4938464;28;90677;-33
2022/03/12 11:09:53;;;;;;;18.17;12.05;;;14.60;65.60;;;;;;4938594;28;90159;-32
2022/03/12 11:12:37;;;;;;;12.75;11.27;;;14.60;66.50;;;;;;4938386;28;89097;-31
2022/03/12 11:15:10;;;;;;;11.30;10.25;;;14.50;67.10;;;;;;4938330;28;90122;-33
2022/03/12 11:17:49;;;;;;;12.15;10.88;;;14.50;67.80;;;;;;4937473;28;88678;-36
2022/03/12 11:20:22;;;;;;;12.02;10.73;;;14.50;68.60;;;;;;4937885;28;89564;-34
2022/03/12 11:23:06;;;;;;;14.57;10.55;;;14.60;68.80;;;;;;4937466;28;88092;-34
2022/03/12 11:25:31;;;;;;;24.50;11.88;;;14.60;67.80;;;;;;4937558;28;88851;-31
2022/03/12 11:28:00;;;;;;;12.35;10.38;;;14.60;68.60;;;;;;4937109;28;90666;-35
2022/03/12 11:30:30;;;;;;;14.68;11.05;;;14.60;68.80;;;;;;4937626;28;90605;-33
2022/03/12 11:33:06;;;;;;;20.13;10.20;;;14.70;68.80;;;;;;4937767;28;89250;-32
2022/03/12 11:35:37;;;;;;;12.60;10.40;;;14.90;68.60;;;;;;4937811;28;90391;-35
2022/03/12 11:38:20;;;;;;;18.90;11.05;;;14.90;68.00;;;;;;4937663;28;89649;-36
2022/03/12 11:40:48;;;;;;;10.93;9.77;;;15.00;68.30;;;;;;4937468;28;89454;-32
2022/03/12 11:43:27;;;;;;;13.77;11.32;;;15.10;68.60;;;;;;4938188;28;87507;-33
2022/03/12 11:45:55;;;;;;;16.27;9.93;;;15.20;68.90;;;;;;4938275;28;90264;-36
2022/03/12 11:48:23;;;;;;;10.93;9.83;;;15.30;68.20;;;;;;4937925;28;89702;-32
2022/03/12 11:50:48;;;;;;;19.23;11.85;;;15.20;69.50;;;;;;4937697;28;88550;-33
2022/03/12 11:53:18;;;;;;;14.02;10.85;;;15.20;69.50;;;;;;4937087;28;89331;-35
2022/03/12 11:55:50;;;;;;;13.77;11.05;;;15.20;70.20;;;;;;4937554;28;90373;-33
2022/03/12 11:58:17;;;;;;;10.82;9.75;;;15.30;71.20;;;;;;4937307;28;90091;-37
2022/03/12 12:00:46;;;;;;;10.70;9.63;;;15.40;70.40;;;;;;4938232;28;89724;-35
2022/03/12 12:03:16;;;;;;;16.02;10.40;;;15.40;70.20;;;;;;4938510;28;89218;-35
2022/03/12 12:05:43;;;;;;;13.13;10.98;;;15.50;70.10;;;;;;4937815;28;89963;-31
2022/03/12 12:08:13;;;;;;;11.00;9.93;;;15.60;70.20;;;;;;4937345;28;90339;-33
2022/03/12 12:10:43;;;;;;;10.98;9.63;;;15.70;70.50;;;;;;4968771;22;89669;-36
2022/03/12 12:13:12;;;;;;;11.18;10.15;;;15.80;69.40;;;;;;4938225;28;88393;-35
2022/03/12 12:15:39;;;;;;;13.85;10.25;;;15.80;68.70;;;;;;4936646;28;91837;-33
2022/03/12 12:18:07;;;;;;;12.43;10.25;;;15.70;68.80;;;;;;4936302;28;89367;-34
2022/03/12 12:20:34;;;;;;;12.70;9.75;;;15.60;68.20;;;;;;4937051;28;90505;-34
2022/03/12 12:23:04;;;;;;;12.07;10.30;;;15.50;68.70;;;;;;4938610;28;89278;-33
2022/03/12 12:25:35;;;;;;;12.00;9.60;;;15.40;68.90;;;;;;4936760;28;90089;-33
2022/03/12 12:28:12;;;;;;;16.40;10.10;;;15.40;69.20;;;;;;4920282;28;89419;-34
2022/03/12 12:30:42;;;;;;;12.68;10.07;;;15.40;69.80;;;;;;4937011;28;89712;-32
2022/03/12 12:33:25;;;;;;;13.45;9.55;;;15.50;70.80;;;;;;4937567;28;87910;-34
2022/03/12 12:36:12;;;;;;;11.60;10.40;;;15.50;70.50;;;;;;4937827;28;91572;-35
2022/03/12 12:38:40;;;;;;;17.65;9.75;;;15.50;69.00;;;;;;4938048;28;89858;-32
2022/03/12 12:41:06;;;;;;;17.98;11.85;;;15.40;71.10;;;;;;4941529;28;90059;-35